Time;durP1;ratioP1;P1;durP2;ratioP2;P2;SDS_P1;SDS_P2;PMS_P1;PMS_P2;Temp;Humidity;BMP_temperature;BMP_pressure;BME280_temperature;BME280_humidity;BME280_pressure;Samples;Min_cycle;Max_cycle;Signal;HPM_P1;HPM_P2
2023/09/20 00:01:19;;;;;;;;;;;;;;;13.39;48.10;95236.81;4947553;28;20479;-76
2023/09/20 00:03:45;;;;;;;;;;;;;;;12.76;49.99;95253.94;4950866;28;19954;-77
2023/09/20 00:06:10;;;;;;;;;;;;;;;13.37;48.34;95238.88;4940398;28;20085;-77
2023/09/20 00:08:35;;;;;;;;;;;;;;;13.56;48.03;95247.91;4946826;28;19963;-78
2023/09/20 00:11:01;;;;;;;;;;;;;;;13.35;48.34;95243.59;4931572;28;19988;-78
2023/09/20 00:13:26;;;;;;;;;;;;;;;13.69;47.77;95240.91;4932178;28;20452;-78
2023/09/20 00:15:55;;;;;;;;;;;;;;;13.71;47.57;95241.53;4936203;28;20036;-77
2023/09/20 00:18:22;;;;;;;;;;;;;;;13.75;47.44;95249.97;4932237;28;19952;-75
2023/09/20 00:20:47;;;;;;;;;;;;;;;13.62;47.73;95248.94;4934623;28;19964;-78
2023/09/20 00:23:17;;;;;;;;;;;;;;;13.01;49.42;95246.22;4917565;28;19954;-77
2023/09/20 00:25:42;;;;;;;;;;;;;;;13.61;48.16;95238.47;4941273;28;19959;-78
2023/09/20 00:28:08;;;;;;;;;;;;;;;13.47;48.08;95248.34;4933747;28;20238;-77
2023/09/20 00:30:33;;;;;;;;;;;;;;;13.80;47.47;95248.31;4941989;28;19955;-76
2023/09/20 00:33:01;;;;;;;;;;;;;;;13.73;47.80;95252.03;4926729;28;19972;-77
2023/09/20 00:35:26;;;;;;;;;;;;;;;13.32;48.38;95252.03;4937896;28;19952;-77
2023/09/20 00:37:52;;;;;;;;;;;;;;;12.65;50.42;95261.50;4943000;28;19972;-77
2023/09/20 00:40:20;;;;;;;;;;;;;;;13.37;48.88;95259.44;4918638;28;19971;-78
2023/09/20 00:42:46;;;;;;;;;;;;;;;13.17;49.48;95254.91;4942934;28;19958;-78
2023/09/20 00:45:13;;;;;;;;;;;;;;;13.37;48.86;95252.25;4936676;28;20507;-78
2023/09/20 00:47:40;;;;;;;;;;;;;;;12.97;49.89;95252.16;4943463;28;20034;-78
2023/09/20 00:50:07;;;;;;;;;;;;;;;12.95;49.73;95249.66;4934371;28;20224;-78
2023/09/20 00:52:32;;;;;;;;;;;;;;;12.83;50.27;95245.94;4937668;28;19976;-76
2023/09/20 00:54:57;;;;;;;;;;;;;;;12.87;50.18;95249.84;4953491;28;19962;-77
2023/09/20 00:57:22;;;;;;;;;;;;;;;12.22;52.36;95251.88;4941084;28;20050;-78
2023/09/20 00:59:48;;;;;;;;;;;;;;;12.86;50.38;95242.88;4933155;28;19957;-77
2023/09/20 01:02:14;;;;;;;;;;;;;;;13.04;49.83;95245.00;4938308;28;20466;-77
2023/09/20 01:04:39;;;;;;;;;;;;;;;13.23;49.23;95243.41;4972153;23;19981;-74
2023/09/20 01:07:04;;;;;;;;;;;;;;;13.22;49.27;95246.28;4969473;28;20421;-74
2023/09/20 01:09:30;;;;;;;;;;;;;;;13.32;48.94;95241.31;4974081;28;19964;-73
2023/09/20 01:11:57;;;;;;;;;;;;;;;12.87;49.87;95245.34;4985905;28;20073;-75
2023/09/20 01:14:22;;;;;;;;;;;;;;;13.23;49.44;95242.56;4973844;28;19988;-73
2023/09/20 01:16:47;;;;;;;;;;;;;;;13.36;48.95;95242.56;4982236;28;20056;-74
2023/09/20 01:19:12;;;;;;;;;;;;;;;13.11;49.92;95240.50;4975085;28;20008;-75
2023/09/20 01:21:44;;;;;;;;;;;;;;;13.16;49.39;95234.53;4982091;28;20011;-73
2023/09/20 01:24:10;;;;;;;;;;;;;;;13.24;49.32;95234.34;4980617;28;19970;-73
2023/09/20 01:26:38;;;;;;;;;;;;;;;13.15;49.70;95233.72;4983040;28;19971;-72
2023/09/20 01:29:03;;;;;;;;;;;;;;;13.00;49.87;95227.72;4981710;28;19962;-73
2023/09/20 01:31:30;;;;;;;;;;;;;;;13.01;49.93;95230.19;4980248;28;20294;-74
2023/09/20 01:33:55;;;;;;;;;;;;;;;13.09;49.69;95225.69;4963316;28;19998;-74
2023/09/20 01:36:21;;;;;;;;;;;;;;;13.17;49.51;95226.31;4960997;28;20067;-73
2023/09/20 01:38:46;;;;;;;;;;;;;;;13.23;49.39;95229.19;4957903;28;19947;-74
2023/09/20 01:41:11;;;;;;;;;;;;;;;13.27;49.47;95233.09;4966795;28;20019;-74
2023/09/20 01:43:38;;;;;;;;;;;;;;;13.22;49.30;95227.56;4976649;28;19955;-72
2023/09/20 01:46:04;;;;;;;;;;;;;;;12.59;51.02;95226.78;4943151;28;19952;-73
2023/09/20 01:48:30;;;;;;;;;;;;;;;12.68;50.62;95220.22;4957882;28;19962;-73
2023/09/20 01:50:55;;;;;;;;;;;;;;;12.80;50.58;95217.78;4972619;28;20405;-73
2023/09/20 01:53:20;;;;;;;;;;;;;;;12.52;51.21;95216.88;4953287;28;20097;-72
2023/09/20 01:55:46;;;;;;;;;;;;;;;12.71;50.72;95219.00;4958373;28;19958;-74
2023/09/20 01:58:12;;;;;;;;;;;;;;;12.74;50.77;95223.94;4957923;28;19949;-73
2023/09/20 02:00:40;;;;;;;;;;;;;;;12.61;51.11;95216.72;4957099;28;19972;-73
2023/09/20 02:03:10;;;;;;;;;;;;;;;12.72;50.90;95216.13;4961276;28;20031;-72
2023/09/20 02:05:36;;;;;;;;;;;;;;;12.75;50.61;95206.91;4967933;28;19982;-74
2023/09/20 02:08:02;;;;;;;;;;;;;;;12.72;50.38;95201.97;4962747;28;20035;-74
2023/09/20 02:10:27;;;;;;;;;;;;;;;12.79;50.50;95205.47;4932673;28;19948;-74
2023/09/20 02:12:56;;;;;;;;;;;;;;;12.82;50.39;95207.75;4944568;28;19959;-72
2023/09/20 02:15:22;;;;;;;;;;;;;;;12.91;49.79;95205.69;4947936;28;20690;-73
2023/09/20 02:17:47;;;;;;;;;;;;;;;12.85;50.45;95198.50;4931072;28;19980;-73
2023/09/20 02:20:19;;;;;;;;;;;;;;;12.77;50.38;95196.81;4935693;28;19966;-74
2023/09/20 02:22:44;;;;;;;;;;;;;;;12.74;50.32;95192.72;4933453;28;19955;-74
2023/09/20 02:25:12;;;;;;;;;;;;;;;12.82;50.39;95194.38;4933364;29;19977;-74
2023/09/20 02:27:41;;;;;;;;;;;;;;;12.91;49.85;95201.19;4924636;28;20678;-74
2023/09/20 02:30:09;;;;;;;;;;;;;;;12.91;50.00;95197.66;4938684;29;19968;-75
2023/09/20 02:32:35;;;;;;;;;;;;;;;12.92;49.83;95199.34;4936318;28;20433;-74
2023/09/20 02:35:03;;;;;;;;;;;;;;;12.91;49.97;95201.19;4932320;29;19955;-73
2023/09/20 02:37:28;;;;;;;;;;;;;;;13.00;49.80;95203.69;4924014;28;19970;-74
2023/09/20 02:39:53;;;;;;;;;;;;;;;12.92;49.96;95204.69;4947755;28;20802;-74
2023/09/20 02:42:22;;;;;;;;;;;;;;;12.89;49.97;95199.72;4936281;29;20047;-73
2023/09/20 02:44:48;;;;;;;;;;;;;;;12.87;50.00;95197.25;4938655;28;20080;-74
2023/09/20 02:47:13;;;;;;;;;;;;;;;12.80;49.97;95202.59;4938563;29;19969;-73
2023/09/20 02:49:40;;;;;;;;;;;;;;;12.85;50.07;95193.97;4937341;28;19997;-73
2023/09/20 02:52:05;;;;;;;;;;;;;;;12.82;49.73;95191.72;4938126;28;20003;-74
2023/09/20 02:54:30;;;;;;;;;;;;;;;12.86;50.15;95192.13;4935057;28;20047;-73
2023/09/20 02:56:56;;;;;;;;;;;;;;;12.96;49.91;95194.41;4938221;28;20309;-74
2023/09/20 02:59:21;;;;;;;;;;;;;;;13.00;49.56;95185.81;4939932;28;20370;-74
2023/09/20 03:01:49;;;;;;;;;;;;;;;13.03;49.86;95188.06;4933271;28;20004;-74
2023/09/20 03:04:15;;;;;;;;;;;;;;;13.10;49.73;95179.22;4948505;28;19982;-74
2023/09/20 03:06:41;;;;;;;;;;;;;;;13.06;49.58;95181.50;4953939;28;20764;-73
2023/09/20 03:09:06;;;;;;;;;;;;;;;13.10;49.36;95169.38;4952928;28;19966;-74
2023/09/20 03:11:35;;;;;;;;;;;;;;;13.05;49.54;95169.97;4933268;29;19954;-73
2023/09/20 03:14:08;;;;;;;;;;;;;;;13.00;49.48;95167.09;4958396;28;20060;-74
2023/09/20 03:16:34;;;;;;;;;;;;;;;13.07;49.69;95167.09;4970043;28;19975;-73
2023/09/20 03:18:59;;;;;;;;;;;;;;;13.13;49.57;95163.59;4968721;28;20031;-74
2023/09/20 03:21:24;;;;;;;;;;;;;;;13.16;49.36;95163.19;4957675;28;20019;-74
2023/09/20 03:23:49;;;;;;;;;;;;;;;13.07;49.77;95156.41;4948852;28;20006;-74
2023/09/20 03:26:16;;;;;;;;;;;;;;;13.10;49.48;95158.69;4955180;28;19967;-75
2023/09/20 03:28:43;;;;;;;;;;;;;;;12.64;50.92;95160.22;4952003;28;20775;-75
2023/09/20 03:31:10;;;;;;;;;;;;;;;12.88;50.28;95158.81;4951077;28;19953;-74
2023/09/20 03:33:36;;;;;;;;;;;;;;;12.93;50.25;95151.00;4939045;28;19965;-74
2023/09/20 03:36:09;;;;;;;;;;;;;;;13.03;49.98;95149.84;4952789;28;19978;-74
2023/09/20 03:38:35;;;;;;;;;;;;;;;13.17;49.65;95154.16;4941287;28;20772;-75
2023/09/20 03:41:00;;;;;;;;;;;;;;;13.17;49.76;95150.66;4959471;28;19973;-74
2023/09/20 03:43:27;;;;;;;;;;;;;;;13.21;49.45;95151.06;4969022;28;20041;-75
2023/09/20 03:45:53;;;;;;;;;;;;;;;13.12;49.75;95145.91;4980447;28;20468;-74
2023/09/20 03:48:18;;;;;;;;;;;;;;;13.04;49.80;95144.28;4980603;28;20019;-74
2023/09/20 03:50:45;;;;;;;;;;;;;;;12.82;50.81;95148.16;4961545;28;19961;-74
2023/09/20 03:53:10;;;;;;;;;;;;;;;12.92;50.59;95149.38;4950931;28;19997;-74
2023/09/20 03:55:35;;;;;;;;;;;;;;;12.80;50.83;95148.34;4944652;28;19937;-74
2023/09/20 03:58:02;;;;;;;;;;;;;;;12.83;51.06;95149.78;4941223;28;19990;-74
2023/09/20 04:00:28;;;;;;;;;;;;;;;12.78;51.02;95155.72;4951761;28;20675;-74
2023/09/20 04:02:54;;;;;;;;;;;;;;;12.56;51.58;95145.22;4955823;28;20057;-74
2023/09/20 04:05:20;;;;;;;;;;;;;;;12.77;51.13;95141.56;4956316;28;20007;-74
2023/09/20 04:07:47;;;;;;;;;;;;;;;12.68;51.72;95145.44;4962727;28;19976;-75
2023/09/20 04:10:15;;;;;;;;;;;;;;;12.89;51.17;95151.66;4961153;28;19951;-74
2023/09/20 04:12:40;;;;;;;;;;;;;;;12.76;51.58;95139.94;4953457;28;19979;-75
2023/09/20 04:15:05;;;;;;;;;;;;;;;12.66;51.73;95132.31;4939378;28;19955;-75
2023/09/20 04:17:38;;;;;;;;;;;;;;;12.73;51.85;95132.31;4951427;28;19974;-75
2023/09/20 04:20:07;;;;;;;;;;;;;;;12.60;52.36;95137.63;4956846;28;20422;-74
2023/09/20 04:22:34;;;;;;;;;;;;;;;12.62;52.27;95136.38;4969301;28;20680;-75
2023/09/20 04:24:59;;;;;;;;;;;;;;;12.65;52.15;95133.31;4975303;28;20281;-74
2023/09/20 04:27:25;;;;;;;;;;;;;;;12.46;52.50;95134.09;4986353;28;19986;-74
2023/09/20 04:29:50;;;;;;;;;;;;;;;12.58;52.01;95129.81;4965579;28;19971;-76
2023/09/20 04:32:17;;;;;;;;;;;;;;;12.86;51.60;95136.03;4974631;28;20436;-75
2023/09/20 04:34:43;;;;;;;;;;;;;;;12.77;51.88;95130.88;4987518;28;19953;-75
2023/09/20 04:37:08;;;;;;;;;;;;;;;11.92;53.82;95134.72;4971123;28;20552;-74
2023/09/20 04:39:33;;;;;;;;;;;;;;;12.53;52.58;95129.59;4969101;28;19990;-75
2023/09/20 04:41:58;;;;;;;;;;;;;;;12.69;52.12;95138.25;4973294;28;20036;-72
2023/09/20 04:44:24;;;;;;;;;;;;;;;12.63;52.10;95130.03;4970773;28;19963;-74
2023/09/20 04:46:49;;;;;;;;;;;;;;;12.68;51.97;95134.75;4962981;28;20771;-73
2023/09/20 04:49:14;;;;;;;;;;;;;;;12.69;51.81;95146.28;4966798;28;19974;-74
2023/09/20 04:51:40;;;;;;;;;;;;;;;12.64;51.95;95137.03;4972893;28;20757;-73
2023/09/20 04:54:08;;;;;;;;;;;;;;;12.61;52.25;95133.94;4981037;28;19944;-73
2023/09/20 04:56:34;;;;;;;;;;;;;;;12.70;51.82;95134.56;4958593;28;19971;-74
2023/09/20 04:59:00;;;;;;;;;;;;;;;12.62;51.88;95132.91;4966458;28;19956;-73
2023/09/20 05:01:25;;;;;;;;;;;;;;;12.67;51.51;95128.63;4960933;28;20103;-74
2023/09/20 05:03:51;;;;;;;;;;;;;;;12.49;51.98;95131.03;4970289;28;19986;-73
2023/09/20 05:06:17;;;;;;;;;;;;;;;12.66;51.58;95126.97;4958877;28;20240;-73
2023/09/20 05:08:43;;;;;;;;;;;;;;;12.07;53.19;95141.78;4980590;28;19985;-73
2023/09/20 05:11:10;;;;;;;;;;;;;;;12.22;53.05;95133.63;4953630;28;19955;-72
2023/09/20 05:13:36;;;;;;;;;;;;;;;12.38;52.51;95135.94;4972490;28;19975;-73
2023/09/20 05:16:03;;;;;;;;;;;;;;;12.49;52.01;95125.69;4969110;28;19974;-74
2023/09/20 05:18:29;;;;;;;;;;;;;;;12.51;52.11;95139.69;4958048;28;19991;-73
2023/09/20 05:20:54;;;;;;;;;;;;;;;12.52;52.30;95122.63;4958718;28;20070;-74
2023/09/20 05:23:19;;;;;;;;;;;;;;;12.48;52.13;95127.53;4985565;28;19956;-73
2023/09/20 05:25:44;;;;;;;;;;;;;;;12.60;51.83;95132.28;4964238;28;19973;-73
2023/09/20 05:28:10;;;;;;;;;;;;;;;12.77;51.53;95127.38;4973178;28;20080;-73
2023/09/20 05:30:35;;;;;;;;;;;;;;;12.58;51.87;95126.34;4962774;28;19994;-74
2023/09/20 05:33:00;;;;;;;;;;;;;;;12.72;51.48;95116.50;4970326;28;20390;-73
2023/09/20 05:35:26;;;;;;;;;;;;;;;12.54;51.77;95117.88;4967478;28;20012;-73
2023/09/20 05:37:51;;;;;;;;;;;;;;;12.71;51.99;95123.66;4956131;28;19964;-73
2023/09/20 05:40:19;;;;;;;;;;;;;;;12.78;51.22;95116.50;4958572;28;20433;-72
2023/09/20 05:42:44;;;;;;;;;;;;;;;12.87;51.24;95117.13;4974790;28;19950;-75
2023/09/20 05:45:10;;;;;;;;;;;;;;;13.05;50.91;95116.53;4964901;28;20042;-76
2023/09/20 05:47:36;;;;;;;;;;;;;;;13.09;51.07;95119.59;4968674;28;19964;-76
2023/09/20 05:50:01;;;;;;;;;;;;;;;13.17;50.73;95122.09;4982825;28;19972;-73
2023/09/20 05:52:27;;;;;;;;;;;;;;;13.35;50.22;95107.25;4959943;28;19988;-73
2023/09/20 05:54:53;;;;;;;;;;;;;;;13.47;50.07;95103.94;4960905;28;20416;-74
2023/09/20 05:57:19;;;;;;;;;;;;;;;13.43;50.00;95112.38;4958541;28;20024;-73
2023/09/20 05:59:44;;;;;;;;;;;;;;;13.62;49.84;95111.72;4961059;28;19951;-74
2023/09/20 06:02:10;;;;;;;;;;;;;;;13.73;49.61;95112.94;4972758;28;19941;-74
2023/09/20 06:04:36;;;;;;;;;;;;;;;13.90;49.24;95111.47;4969668;28;20011;-74
2023/09/20 06:07:04;;;;;;;;;;;;;;;13.67;49.74;95109.25;4941310;28;20007;-73
2023/09/20 06:09:29;;;;;;;;;;;;;;;13.84;49.39;95125.66;4969115;28;19961;-73
2023/09/20 06:11:55;;;;;;;;;;;;;;;13.78;49.63;95121.16;4960163;28;19970;-73
2023/09/20 06:14:22;;;;;;;;;;;;;;;13.77;49.72;95124.88;4966464;28;19935;-73
2023/09/20 06:16:47;;;;;;;;;;;;;;;14.00;49.20;95118.22;4959759;28;20008;-74
2023/09/20 06:19:12;;;;;;;;;;;;;;;14.18;48.86;95125.56;4959670;28;20061;-74
2023/09/20 06:21:38;;;;;;;;;;;;;;;14.24;48.81;95126.56;4963800;28;19990;-73
2023/09/20 06:24:04;;;;;;;;;;;;;;;14.33;48.79;95128.78;4982764;28;20008;-74
2023/09/20 06:26:29;;;;;;;;;;;;;;;14.21;49.10;95130.47;4963397;28;20004;-73
2023/09/20 06:28:55;;;;;;;;;;;;;;;14.28;48.90;95128.59;4968239;28;20065;-75
2023/09/20 06:31:20;;;;;;;;;;;;;;;14.38;48.98;95120.09;4966086;28;20052;-74
2023/09/20 06:33:49;;;;;;;;;;;;;;;14.55;48.69;95115.03;4965461;28;20045;-72
2023/09/20 06:36:15;;;;;;;;;;;;;;;14.67;48.23;95111.69;4957680;28;20650;-74
2023/09/20 06:38:42;;;;;;;;;;;;;;;14.91;47.98;95110.09;4941681;28;20016;-65
2023/09/20 06:41:07;;;;;;;;;;;;;;;14.16;49.33;95112.38;4951413;28;19965;-65
2023/09/20 06:43:33;;;;;;;;;;;;;;;14.61;48.90;95104.53;4966729;28;19950;-65
2023/09/20 06:45:59;;;;;;;;;;;;;;;14.94;47.88;95109.66;4970338;28;19949;-65
2023/09/20 06:48:24;;;;;;;;;;;;;;;14.91;48.06;95120.81;4962376;28;19964;-65
2023/09/20 06:50:50;;;;;;;;;;;;;;;14.77;48.41;95120.09;4965915;28;20424;-65
2023/09/20 06:53:17;;;;;;;;;;;;;;;14.64;49.09;95122.81;4943370;28;20430;-65
2023/09/20 06:55:42;;;;;;;;;;;;;;;15.00;48.43;95129.41;4942206;28;20488;-64
2023/09/20 06:58:08;;;;;;;;;;;;;;;13.73;50.93;95137.00;4937509;28;19960;-66
2023/09/20 07:00:35;;;;;;;;;;;;;;;14.51;48.56;95131.78;4936650;28;20427;-64
2023/09/20 07:03:00;;;;;;;;;;;;;;;14.87;48.55;95134.88;4931349;29;19927;-65
2023/09/20 07:05:28;;;;;;;;;;;;;;;14.62;48.18;95130.28;4927426;28;20772;-64
2023/09/20 07:07:54;;;;;;;;;;;;;;;14.71;48.28;95137.81;4934805;28;20562;-66
2023/09/20 07:10:19;;;;;;;;;;;;;;;14.89;47.08;95130.91;4934123;28;20081;-64
2023/09/20 07:12:44;;;;;;;;;;;;;;;14.88;48.52;95136.50;4930860;28;20397;-65
2023/09/20 07:15:12;;;;;;;;;;;;;;;15.05;48.01;95128.75;4929051;29;19949;-64
2023/09/20 07:17:40;;;;;;;;;;;;;;;14.52;49.61;95123.50;4930763;28;19983;-64
2023/09/20 07:20:08;;;;;;;;;;;;;;;14.98;48.14;95132.31;4931619;28;20481;-65
2023/09/20 07:22:34;;;;;;;;;;;;;;;13.87;51.43;95129.78;4934043;28;20033;-65
2023/09/20 07:25:04;;;;;;;;;;;;;;;14.37;49.65;95128.31;4933135;28;20018;-64
2023/09/20 07:27:32;;;;;;;;;;;;;;;14.91;48.13;95136.91;4934891;28;19979;-64
2023/09/20 07:29:59;;;;;;;;;;;;;;;14.83;48.32;95129.13;4953490;28;19965;-64
2023/09/20 07:32:25;;;;;;;;;;;;;;;14.77;49.28;95129.97;4952322;28;19955;-64
2023/09/20 07:34:57;;;;;;;;;;;;;;;15.32;48.28;95136.56;4956614;28;19943;-64
2023/09/20 07:37:25;;;;;;;;;;;;;;;15.37;46.76;95131.38;4951552;28;20699;-65
2023/09/20 07:39:50;;;;;;;;;;;;;;;15.62;46.29;95133.22;4955725;28;19969;-65
2023/09/20 07:42:16;;;;;;;;;;;;;;;15.86;46.96;95125.34;4951670;28;19954;-64
2023/09/20 07:44:43;;;;;;;;;;;;;;;15.88;47.28;95121.38;4950917;28;20002;-64
2023/09/20 07:47:09;;;;;;;;;;;;;;;14.97;48.50;95125.31;4952033;28;19960;-64
2023/09/20 07:49:35;;;;;;;;;;;;;;;15.20;48.65;95128.44;4951516;28;19961;-65
2023/09/20 07:52:00;;;;;;;;;;;;;;;15.37;48.22;95123.34;4949575;28;19958;-65
2023/09/20 07:54:27;;;;;;;;;;;;;;;15.66;46.17;95122.84;4950879;28;20583;-64
2023/09/20 07:56:52;;;;;;;;;;;;;;;15.79;46.79;95124.59;4953790;28;19989;-67
2023/09/20 07:59:17;;;;;;;;;;;;;;;15.78;47.37;95129.16;4946364;28;20023;-64
2023/09/20 08:01:43;;;;;;;;;;;;;;;16.23;45.20;95130.69;4953451;28;20558;-64
2023/09/20 08:04:10;;;;;;;;;;;;;;;16.44;45.07;95133.94;4949584;28;21226;-63
2023/09/20 08:06:36;;;;;;;;;;;;;;;15.26;47.49;95137.47;4952610;28;19977;-64
2023/09/20 08:09:04;;;;;;;;;;;;;;;15.85;46.52;95131.75;4953031;28;19961;-75
2023/09/20 08:11:29;;;;;;;;;;;;;;;16.29;45.48;95139.69;4954435;28;20595;-74
2023/09/20 08:13:55;;;;;;;;;;;;;;;15.96;45.78;95139.06;4942888;28;20065;-75
2023/09/20 08:16:21;;;;;;;;;;;;;;;16.21;46.30;95142.66;4943007;28;19933;-75
2023/09/20 08:21:34;;;;;;;;;;;;;;;15.71;47.25;95142.59;4946374;28;19964;-72
2023/09/20 08:59:53;;;;;;;;;;;;;;;18.52;40.88;95122.50;4935151;28;20009;-67
2023/09/20 09:02:19;;;;;;;;;;;;;;;18.04;42.18;95127.25;4933943;28;20448;-67
2023/09/20 09:04:49;;;;;;;;;;;;;;;18.84;40.87;95123.09;4937276;28;19934;-67
2023/09/20 09:07:16;;;;;;;;;;;;;;;17.83;42.68;95123.25;4951660;28;20608;-68
2023/09/20 09:09:41;;;;;;;;;;;;;;;17.86;42.60;95118.28;4931100;28;19964;-67
2023/09/20 09:12:07;;;;;;;;;;;;;;;18.24;42.20;95116.06;4927510;28;19926;-67
2023/09/20 09:14:35;;;;;;;;;;;;;;;18.68;40.63;95110.16;4929179;28;19922;-67
2023/09/20 09:17:04;;;;;;;;;;;;;;;19.19;40.45;95103.16;4929369;28;20638;-66
2023/09/20 09:19:29;;;;;;;;;;;;;;;18.96;41.08;95099.56;4932338;28;19930;-66
2023/09/20 09:21:55;;;;;;;;;;;;;;;19.01;40.53;95102.38;4938211;28;19926;-66
2023/09/20 09:24:21;;;;;;;;;;;;;;;16.89;44.83;95102.28;4935664;28;20802;-68
2023/09/20 09:26:46;;;;;;;;;;;;;;;18.64;41.79;95098.25;4945643;28;19962;-67
2023/09/20 09:29:18;;;;;;;;;;;;;;;19.29;39.77;95097.13;4953522;28;20013;-67
2023/09/20 09:31:49;;;;;;;;;;;;;;;18.92;40.37;95109.22;4961879;28;19922;-68
2023/09/20 09:34:17;;;;;;;;;;;;;;;15.27;48.78;95113.09;4956756;28;19971;-66
2023/09/20 09:36:43;;;;;;;;;;;;;;;18.12;42.44;95096.44;4965666;28;19926;-66
2023/09/20 09:39:14;;;;;;;;;;;;;;;18.60;41.83;95109.75;4955848;28;20501;-68
2023/09/20 09:41:42;;;;;;;;;;;;;;;18.78;41.40;95109.53;4937061;28;19937;-66
2023/09/20 09:44:08;;;;;;;;;;;;;;;18.28;42.06;95100.22;4938446;28;20009;-67
2023/09/20 09:46:34;;;;;;;;;;;;;;;17.43;44.13;95111.38;4952601;28;20758;-68
2023/09/20 09:49:00;;;;;;;;;;;;;;;18.49;41.89;95104.13;4962817;28;19922;-68
2023/09/20 09:51:25;;;;;;;;;;;;;;;18.02;42.91;95097.84;4953997;28;19933;-66
2023/09/20 09:53:50;;;;;;;;;;;;;;;17.30;44.48;95096.28;4954286;28;19926;-67
2023/09/20 09:56:16;;;;;;;;;;;;;;;17.18;44.35;95096.28;4944534;28;19957;-67
2023/09/20 09:58:41;;;;;;;;;;;;;;;18.01;42.94;95093.53;4933730;28;19929;-66
2023/09/20 10:01:06;;;;;;;;;;;;;;;17.92;43.80;95092.28;4933601;28;20090;-66
2023/09/20 10:03:32;;;;;;;;;;;;;;;17.91;43.48;95104.06;4930414;28;19978;-66
2023/09/20 10:06:08;;;;;;;;;;;;;;;18.04;42.70;95111.91;4934332;28;20055;-67
2023/09/20 10:08:38;;;;;;;;;;;;;;;18.53;41.85;95107.16;4936997;28;19930;-68
2023/09/20 10:11:05;;;;;;;;;;;;;;;18.31;41.56;95108.66;4952295;28;19926;-66
2023/09/20 10:13:30;;;;;;;;;;;;;;;17.64;43.07;95107.28;4937215;28;19973;-66
2023/09/20 10:15:57;;;;;;;;;;;;;;;17.74;44.22;95102.09;4931784;28;19942;-66
2023/09/20 10:18:24;;;;;;;;;;;;;;;18.09;43.00;95094.22;4916388;29;20103;-67
2023/09/20 10:20:58;;;;;;;;;;;;;;;16.51;46.01;95110.50;4932596;28;20062;-68
2023/09/20 10:23:24;;;;;;;;;;;;;;;16.60;45.70;95099.44;4943872;28;19921;-67
2023/09/20 10:25:50;;;;;;;;;;;;;;;17.76;43.26;95089.22;4936004;28;20445;-68
2023/09/20 10:28:17;;;;;;;;;;;;;;;18.43;42.35;95099.72;4941105;28;20012;-66
2023/09/20 10:31:02;;;;;;;;;;;;;;;18.28;42.19;95097.53;4946954;28;20791;-66
2023/09/20 10:33:41;;;;;;;;;;;;;;;16.29;46.83;95101.28;4951088;28;19930;-66
2023/09/20 10:36:06;;;;;;;;;;;;;;;18.14;42.80;95087.06;4952047;28;20529;-67
2023/09/20 10:38:32;;;;;;;;;;;;;;;18.70;42.22;95091.06;4951483;28;19938;-67
2023/09/20 10:41:00;;;;;;;;;;;;;;;18.67;41.96;95080.75;4953350;28;20184;-69
2023/09/20 10:43:34;;;;;;;;;;;;;;;18.50;41.57;95084.22;4957331;28;19957;-70
2023/09/20 10:46:00;;;;;;;;;;;;;;;18.80;41.18;95083.13;4951038;28;19933;-68
2023/09/20 10:48:28;;;;;;;;;;;;;;;19.05;40.26;95071.13;4951425;28;20584;-68
2023/09/20 10:50:57;;;;;;;;;;;;;;;18.21;42.96;95072.59;4952114;28;19930;-68
2023/09/20 10:53:27;;;;;;;;;;;;;;;17.16;44.46;95085.75;4954092;28;19934;-72
2023/09/20 10:55:53;;;;;;;;;;;;;;;18.24;41.98;95094.50;4965174;28;19922;-73
2023/09/20 10:58:23;;;;;;;;;;;;;;;18.45;41.33;95078.72;4954727;28;20272;-72
2023/09/20 11:00:50;;;;;;;;;;;;;;;18.39;41.27;95080.50;4970179;28;19980;-73
2023/09/20 11:03:17;;;;;;;;;;;;;;;17.10;43.31;95070.53;4971681;28;19999;-74
2023/09/20 11:05:42;;;;;;;;;;;;;;;16.44;44.25;95085.59;4966293;28;19921;-71
2023/09/20 11:08:08;;;;;;;;;;;;;;;17.73;42.64;95078.94;4969100;28;19993;-72
2023/09/20 11:10:34;;;;;;;;;;;;;;;17.30;42.50;95077.47;4961639;28;19937;-73
2023/09/20 11:13:01;;;;;;;;;;;;;;;18.03;42.00;95064.50;4944323;28;19966;-74
2023/09/20 11:15:26;;;;;;;;;;;;;;;17.15;43.67;95059.91;4949238;28;20555;-73
2023/09/20 11:17:52;;;;;;;;;;;;;;;17.82;42.52;95057.03;4942877;28;19933;-71
2023/09/20 11:20:17;;;;;;;;;;;;;;;18.45;41.42;95062.56;4952043;28;19926;-74
2023/09/20 11:22:42;;;;;;;;;;;;;;;18.58;40.93;95060.63;4953139;28;19933;-73
2023/09/20 11:25:08;;;;;;;;;;;;;;;17.36;42.70;95063.88;4961138;28;20363;-71
2023/09/20 11:27:34;;;;;;;;;;;;;;;18.17;41.49;95056.94;4944523;28;20288;-71
2023/09/20 11:30:04;;;;;;;;;;;;;;;18.68;40.27;95060.81;4965450;28;19969;-73
2023/09/20 11:32:29;;;;;;;;;;;;;;;18.35;41.24;95049.72;4953302;28;19935;-73
2023/09/20 11:34:55;;;;;;;;;;;;;;;19.33;39.47;95047.84;4964513;28;19985;-73
2023/09/20 11:37:21;;;;;;;;;;;;;;;18.58;40.75;95050.69;4952634;28;19926;-73
2023/09/20 11:39:47;;;;;;;;;;;;;;;18.88;40.90;95048.72;4976530;28;20572;-73
2023/09/20 11:42:34;;;;;;;;;;;;;;;19.15;39.91;95048.91;4935777;28;20010;-73
2023/09/20 11:45:03;;;;;;;;;;;;;;;18.87;40.47;95039.81;4947905;28;20032;-73
2023/09/20 11:47:29;;;;;;;;;;;;;;;18.07;41.82;95042.44;4942581;28;20029;-73
2023/09/20 11:49:55;;;;;;;;;;;;;;;19.03;39.89;95040.88;4951415;28;20008;-73
2023/09/20 11:52:21;;;;;;;;;;;;;;;19.04;40.67;95037.13;4957525;28;19948;-73
2023/09/20 11:54:47;;;;;;;;;;;;;;;19.54;40.39;95039.19;4935817;28;20478;-73
2023/09/20 11:57:16;;;;;;;;;;;;;;;20.04;38.70;95031.16;4952276;28;19930;-73
2023/09/20 11:59:42;;;;;;;;;;;;;;;20.30;39.24;95026.03;4951577;28;20578;-73
2023/09/20 12:02:08;;;;;;;;;;;;;;;20.77;38.30;95021.88;4964362;28;19922;-73
2023/09/20 12:04:33;;;;;;;;;;;;;;;21.12;38.10;95019.72;4948792;28;19941;-73
2023/09/20 12:06:59;;;;;;;;;;;;;;;21.12;37.41;95011.59;4936906;28;20256;-73
2023/09/20 12:09:24;;;;;;;;;;;;;;;20.75;38.09;95015.94;4935732;28;20056;-73
2023/09/20 12:11:50;;;;;;;;;;;;;;;21.52;36.83;95014.84;4933413;28;20389;-73
2023/09/20 12:14:15;;;;;;;;;;;;;;;21.40;37.46;95012.31;4970420;28;19926;-73
2023/09/20 12:16:47;;;;;;;;;;;;;;;21.72;35.53;95010.59;4963061;28;19933;-73
2023/09/20 12:19:12;;;;;;;;;;;;;;;22.13;35.76;95005.31;4954776;28;19922;-73
2023/09/20 12:21:37;;;;;;;;;;;;;;;22.86;35.46;95001.88;4970517;28;19922;-73
2023/09/20 12:24:03;;;;;;;;;;;;;;;22.87;34.39;95000.78;4954626;28;20012;-73
2023/09/20 12:26:28;;;;;;;;;;;;;;;21.83;35.75;94993.28;4950268;28;20004;-73
2023/09/20 12:28:53;;;;;;;;;;;;;;;22.63;34.91;94996.72;4950649;28;20341;-73
2023/09/20 12:31:23;;;;;;;;;;;;;;;22.28;34.97;94991.00;4959930;28;20394;-73
2023/09/20 12:33:49;;;;;;;;;;;;;;;22.54;33.78;94998.38;4937654;28;19926;-73
2023/09/20 12:36:14;;;;;;;;;;;;;;;19.53;39.14;94997.88;4940870;28;19922;-73
2023/09/20 12:38:40;;;;;;;;;;;;;;;21.55;36.84;94981.78;4953792;28;19926;-73
2023/09/20 12:41:08;;;;;;;;;;;;;;;22.10;35.00;94975.22;4951808;28;20225;-75
2023/09/20 12:43:33;;;;;;;;;;;;;;;21.13;36.60;94981.56;4976535;28;20683;-74
2023/09/20 12:45:59;;;;;;;;;;;;;;;22.39;34.83;94966.59;4950867;28;19927;-74
2023/09/20 12:48:24;;;;;;;;;;;;;;;20.86;36.61;94977.06;4958519;28;19995;-73
2023/09/20 12:50:49;;;;;;;;;;;;;;;21.88;34.34;94963.50;4950985;28;19934;-73
2023/09/20 12:53:14;;;;;;;;;;;;;;;20.77;36.48;94962.38;4944258;28;19997;-73
2023/09/20 12:55:40;;;;;;;;;;;;;;;21.24;35.58;94946.44;4941958;28;20724;-74
2023/09/20 12:58:06;;;;;;;;;;;;;;;23.10;33.40;94947.84;4957644;28;20373;-73
2023/09/20 13:00:31;;;;;;;;;;;;;;;23.68;29.92;94979.19;4959464;28;20650;-74
2023/09/20 13:02:59;;;;;;;;;;;;;;;25.29;29.63;94933.66;4944802;28;20017;-73
2023/09/20 13:05:24;;;;;;;;;;;;;;;25.44;27.65;94932.69;4934874;28;19923;-75
2023/09/20 13:07:49;;;;;;;;;;;;;;;26.37;25.65;94929.81;4933153;28;19965;-73
2023/09/20 13:10:15;;;;;;;;;;;;;;;28.03;24.66;94932.22;4933745;28;20049;-73
2023/09/20 13:12:40;;;;;;;;;;;;;;;28.92;23.50;94928.19;4933852;28;19923;-73
2023/09/20 13:15:08;;;;;;;;;;;;;;;28.36;22.41;94936.69;4939645;29;19925;-74
2023/09/20 13:17:33;;;;;;;;;;;;;;;29.43;21.41;94914.25;4932608;28;19929;-73
2023/09/20 13:19:59;;;;;;;;;;;;;;;29.13;22.36;94913.94;4929327;28;19930;-73
2023/09/20 13:22:25;;;;;;;;;;;;;;;29.84;21.03;94902.44;4952704;28;19926;-73